sensor_id;sensor_type;location;lat;lon;timestamp;temperature;humidity
65568;DHT22;52211;50.154;8.682;2023-04-01T00:01:26;13.20;64.50
65568;DHT22;52211;50.154;8.682;2023-04-01T00:03:53;13.20;64.40
65568;DHT22;52211;50.154;8.682;2023-04-01T00:06:21;13.20;64.30
65568;DHT22;52211;50.154;8.682;2023-04-01T00:08:50;13.20;64.30
65568;DHT22;52211;50.154;8.682;2023-04-01T00:11:17;13.20;64.30
65568;DHT22;52211;50.154;8.682;2023-04-01T00:13:49;13.20;64.30
65568;DHT22;52211;50.154;8.682;2023-04-01T00:16:16;13.20;64.20
65568;DHT22;52211;50.154;8.682;2023-04-01T00:18:49;13.20;64.20
65568;DHT22;52211;50.154;8.682;2023-04-01T00:21:17;13.20;64.20
65568;DHT22;52211;50.154;8.682;2023-04-01T00:23:47;13.20;64.20
65568;DHT22;52211;50.154;8.682;2023-04-01T00:26:18;13.20;64.20
65568;DHT22;52211;50.154;8.682;2023-04-01T00:28:50;13.20;64.30
65568;DHT22;52211;50.154;8.682;2023-04-01T00:31:17;13.20;64.30
65568;DHT22;52211;50.154;8.682;2023-04-01T00:33:44;13.20;64.30
65568;DHT22;52211;50.154;8.682;2023-04-01T00:36:18;13.10;64.20
65568;DHT22;52211;50.154;8.682;2023-04-01T00:38:48;13.20;64.20
65568;DHT22;52211;50.154;8.682;2023-04-01T00:41:19;13.20;64.20
65568;DHT22;52211;50.154;8.682;2023-04-01T00:43:50;13.20;64.30
65568;DHT22;52211;50.154;8.682;2023-04-01T00:46:22;13.20;64.30
65568;DHT22;52211;50.154;8.682;2023-04-01T00:48:55;13.10;64.30
65568;DHT22;52211;50.154;8.682;2023-04-01T00:51:29;13.10;64.30
65568;DHT22;52211;50.154;8.682;2023-04-01T00:53:59;13.10;64.20
65568;DHT22;52211;50.154;8.682;2023-04-01T00:59:52;13.10;64.10
65568;DHT22;52211;50.154;8.682;2023-04-01T01:02:22;13.10;64.10
65568;DHT22;52211;50.154;8.682;2023-04-01T01:04:49;13.10;64.00
65568;DHT22;52211;50.154;8.682;2023-04-01T01:10:18;13.10;63.90
65568;DHT22;52211;50.154;8.682;2023-04-01T01:15:58;13.10;63.70
65568;DHT22;52211;50.154;8.682;2023-04-01T01:21:56;13.10;63.80
65568;DHT22;52211;50.154;8.682;2023-04-01T01:25:58;13.10;63.70
65568;DHT22;52211;50.154;8.682;2023-04-01T01:28:45;13.10;63.70
65568;DHT22;52211;50.154;8.682;2023-04-01T01:37:13;13.10;63.60
65568;DHT22;52211;50.154;8.682;2023-04-01T01:39:48;13.10;63.60
65568;DHT22;52211;50.154;8.682;2023-04-01T01:42:26;13.10;64.30
65568;DHT22;52211;50.154;8.682;2023-04-01T01:44:59;13.10;63.60
65568;DHT22;52211;50.154;8.682;2023-04-01T01:47:28;13.10;63.60
65568;DHT22;52211;50.154;8.682;2023-04-01T01:49:59;13.10;63.70
65568;DHT22;52211;50.154;8.682;2023-04-01T01:52:30;13.10;63.60
65568;DHT22;52211;50.154;8.682;2023-04-01T01:54:58;13.10;63.70
65568;DHT22;52211;50.154;8.682;2023-04-01T01:57:34;13.10;63.70
65568;DHT22;52211;50.154;8.682;2023-04-01T02:00:12;13.10;63.70
65568;DHT22;52211;50.154;8.682;2023-04-01T02:02:45;13.10;63.80
65568;DHT22;52211;50.154;8.682;2023-04-01T02:05:19;13.10;63.70
65568;DHT22;52211;50.154;8.682;2023-04-01T02:08:06;13.10;63.60
65568;DHT22;52211;50.154;8.682;2023-04-01T02:10:43;13.10;63.60
65568;DHT22;52211;50.154;8.682;2023-04-01T02:13:33;13.10;63.60
65568;DHT22;52211;50.154;8.682;2023-04-01T02:16:36;13.10;63.60
65568;DHT22;52211;50.154;8.682;2023-04-01T02:19:13;13.10;63.60
65568;DHT22;52211;50.154;8.682;2023-04-01T02:21:56;13.10;63.60
65568;DHT22;52211;50.154;8.682;2023-04-01T02:24:31;13.10;63.60
65568;DHT22;52211;50.154;8.682;2023-04-01T02:27:04;13.10;63.60
65568;DHT22;52211;50.154;8.682;2023-04-01T02:29:36;13.10;63.60
65568;DHT22;52211;50.154;8.682;2023-04-01T02:32:09;13.10;63.60
65568;DHT22;52211;50.154;8.682;2023-04-01T02:34:37;13.10;63.60
65568;DHT22;52211;50.154;8.682;2023-04-01T02:37:07;13.10;63.50
65568;DHT22;52211;50.154;8.682;2023-04-01T02:39:34;13.10;63.50
65568;DHT22;52211;50.154;8.682;2023-04-01T02:42:03;13.10;63.50
65568;DHT22;52211;50.154;8.682;2023-04-01T02:44:35;13.10;63.50
65568;DHT22;52211;50.154;8.682;2023-04-01T02:47:03;13.10;63.50
65568;DHT22;52211;50.154;8.682;2023-04-01T02:49:30;13.10;63.50
65568;DHT22;52211;50.154;8.682;2023-04-01T02:52:04;13.10;63.40
65568;DHT22;52211;50.154;8.682;2023-04-01T02:54:31;13.10;63.40
65568;DHT22;52211;50.154;8.682;2023-04-01T02:56:58;13.10;63.40
65568;DHT22;52211;50.154;8.682;2023-04-01T02:59:25;13.10;63.40
65568;DHT22;52211;50.154;8.682;2023-04-01T03:01:54;13.10;63.40
65568;DHT22;52211;50.154;8.682;2023-04-01T03:04:23;13.10;63.30
65568;DHT22;52211;50.154;8.682;2023-04-01T03:06:51;13.10;63.30
65568;DHT22;52211;50.154;8.682;2023-04-01T03:09:20;13.10;63.20
65568;DHT22;52211;50.154;8.682;2023-04-01T03:11:51;13.10;63.30
65568;DHT22;52211;50.154;8.682;2023-04-01T03:14:23;13.00;63.20
65568;DHT22;52211;50.154;8.682;2023-04-01T03:16:50;13.10;63.20
65568;DHT22;52211;50.154;8.682;2023-04-01T03:19:22;13.10;63.40
65568;DHT22;52211;50.154;8.682;2023-04-01T03:21:49;13.00;63.30
65568;DHT22;52211;50.154;8.682;2023-04-01T03:24:18;13.00;63.40
65568;DHT22;52211;50.154;8.682;2023-04-01T03:26:48;13.00;63.30
65568;DHT22;52211;50.154;8.682;2023-04-01T03:29:25;13.00;63.40
65568;DHT22;52211;50.154;8.682;2023-04-01T03:31:55;13.00;63.40
65568;DHT22;52211;50.154;8.682;2023-04-01T03:34:25;12.90;63.40
65568;DHT22;52211;50.154;8.682;2023-04-01T03:36:54;12.90;63.40
65568;DHT22;52211;50.154;8.682;2023-04-01T03:39:24;12.80;63.50
65568;DHT22;52211;50.154;8.682;2023-04-01T03:41:54;12.80;63.60
65568;DHT22;52211;50.154;8.682;2023-04-01T03:44:21;12.80;63.70
65568;DHT22;52211;50.154;8.682;2023-04-01T03:46:52;12.80;63.70
65568;DHT22;52211;50.154;8.682;2023-04-01T03:49:22;12.70;63.80
65568;DHT22;52211;50.154;8.682;2023-04-01T03:51:51;12.70;63.90
65568;DHT22;52211;50.154;8.682;2023-04-01T03:54:18;12.60;63.90
65568;DHT22;52211;50.154;8.682;2023-04-01T03:56:46;12.60;64.00
65568;DHT22;52211;50.154;8.682;2023-04-01T03:59:14;12.60;64.10
65568;DHT22;52211;50.154;8.682;2023-04-01T04:01:46;12.60;64.10
65568;DHT22;52211;50.154;8.682;2023-04-01T04:04:17;12.60;64.10
65568;DHT22;52211;50.154;8.682;2023-04-01T04:06:47;12.60;64.20
65568;DHT22;52211;50.154;8.682;2023-04-01T04:09:21;12.60;64.20
65568;DHT22;52211;50.154;8.682;2023-04-01T04:11:53;12.60;64.80
65568;DHT22;52211;50.154;8.682;2023-04-01T04:14:20;12.60;64.20
65568;DHT22;52211;50.154;8.682;2023-04-01T04:16:50;12.60;64.20
65568;DHT22;52211;50.154;8.682;2023-04-01T04:19:21;12.60;64.20
65568;DHT22;52211;50.154;8.682;2023-04-01T04:21:50;12.60;64.30
65568;DHT22;52211;50.154;8.682;2023-04-01T04:24:20;12.70;64.30
65568;DHT22;52211;50.154;8.682;2023-04-01T04:27:09;12.60;64.30
65568;DHT22;52211;50.154;8.682;2023-04-01T04:29:52;12.60;64.30
65568;DHT22;52211;50.154;8.682;2023-04-01T04:32:21;12.60;64.30
65568;DHT22;52211;50.154;8.682;2023-04-01T04:34:53;12.60;64.30
65568;DHT22;52211;50.154;8.682;2023-04-01T04:37:22;12.60;64.30
65568;DHT22;52211;50.154;8.682;2023-04-01T04:39:49;12.50;64.30
65568;DHT22;52211;50.154;8.682;2023-04-01T04:42:19;12.60;64.40
65568;DHT22;52211;50.154;8.682;2023-04-01T04:44:46;12.50;64.30
65568;DHT22;52211;50.154;8.682;2023-04-01T04:47:13;12.60;64.40
65568;DHT22;52211;50.154;8.682;2023-04-01T04:49:42;12.60;64.40
65568;DHT22;52211;50.154;8.682;2023-04-01T04:52:09;12.60;64.40
65568;DHT22;52211;50.154;8.682;2023-04-01T04:54:36;12.60;64.50
65568;DHT22;52211;50.154;8.682;2023-04-01T04:57:04;12.60;64.50
65568;DHT22;52211;50.154;8.682;2023-04-01T04:59:37;12.50;64.50
65568;DHT22;52211;50.154;8.682;2023-04-01T05:02:11;12.50;64.60
65568;DHT22;52211;50.154;8.682;2023-04-01T05:04:41;12.50;64.70
65568;DHT22;52211;50.154;8.682;2023-04-01T05:07:10;12.50;64.70
65568;DHT22;52211;50.154;8.682;2023-04-01T05:09:37;12.40;64.70
65568;DHT22;52211;50.154;8.682;2023-04-01T05:12:08;12.40;64.80
65568;DHT22;52211;50.154;8.682;2023-04-01T05:15:10;12.40;64.80
65568;DHT22;52211;50.154;8.682;2023-04-01T05:17:38;12.40;64.90
65568;DHT22;52211;50.154;8.682;2023-04-01T05:20:09;12.40;64.90
65568;DHT22;52211;50.154;8.682;2023-04-01T05:22:41;12.40;65.00
65568;DHT22;52211;50.154;8.682;2023-04-01T05:25:12;12.40;65.10
65568;DHT22;52211;50.154;8.682;2023-04-01T05:27:41;12.40;65.10
65568;DHT22;52211;50.154;8.682;2023-04-01T05:30:09;12.30;65.00
65568;DHT22;52211;50.154;8.682;2023-04-01T05:32:44;12.40;65.10
65568;DHT22;52211;50.154;8.682;2023-04-01T05:35:19;12.40;65.10
65568;DHT22;52211;50.154;8.682;2023-04-01T05:37:50;12.40;65.10
65568;DHT22;52211;50.154;8.682;2023-04-01T05:40:20;12.30;65.10
65568;DHT22;52211;50.154;8.682;2023-04-01T05:42:47;12.30;65.10
65568;DHT22;52211;50.154;8.682;2023-04-01T05:45:15;12.30;65.20
65568;DHT22;52211;50.154;8.682;2023-04-01T05:47:51;12.30;65.20
65568;DHT22;52211;50.154;8.682;2023-04-01T05:50:23;12.30;65.30
65568;DHT22;52211;50.154;8.682;2023-04-01T05:52:53;12.30;65.30
65568;DHT22;52211;50.154;8.682;2023-04-01T05:55:25;12.30;65.50
65568;DHT22;52211;50.154;8.682;2023-04-01T05:57:52;12.30;65.40
65568;DHT22;52211;50.154;8.682;2023-04-01T06:00:21;12.30;65.40
65568;DHT22;52211;50.154;8.682;2023-04-01T06:02:51;12.30;65.50
65568;DHT22;52211;50.154;8.682;2023-04-01T06:05:24;12.20;65.50
65568;DHT22;52211;50.154;8.682;2023-04-01T06:07:58;12.20;65.50
65568;DHT22;52211;50.154;8.682;2023-04-01T06:10:53;12.20;65.60
65568;DHT22;52211;50.154;8.682;2023-04-01T06:17:30;12.10;65.60
65568;DHT22;52211;50.154;8.682;2023-04-01T06:20:29;12.10;65.90
65568;DHT22;52211;50.154;8.682;2023-04-01T06:23:23;12.00;65.90
65568;DHT22;52211;50.154;8.682;2023-04-01T06:26:11;12.10;65.90
65568;DHT22;52211;50.154;8.682;2023-04-01T06:29:23;12.00;65.90
65568;DHT22;52211;50.154;8.682;2023-04-01T06:43:40;12.00;66.30
65568;DHT22;52211;50.154;8.682;2023-04-01T06:56:42;12.10;66.40
65568;DHT22;52211;50.154;8.682;2023-04-01T06:59:26;12.10;66.30
65568;DHT22;52211;50.154;8.682;2023-04-01T07:04:49;12.10;66.30
65568;DHT22;52211;50.154;8.682;2023-04-01T07:07:41;12.10;66.50
65568;DHT22;52211;50.154;8.682;2023-04-01T07:10:43;12.20;66.40
65568;DHT22;52211;50.154;8.682;2023-04-01T07:16:44;12.20;66.20
65568;DHT22;52211;50.154;8.682;2023-04-01T07:22:57;12.20;66.30
65568;DHT22;52211;50.154;8.682;2023-04-01T07:25:45;12.20;66.20
65568;DHT22;52211;50.154;8.682;2023-04-01T07:28:35;12.20;66.20
65568;DHT22;52211;50.154;8.682;2023-04-01T07:31:49;12.20;66.30
65568;DHT22;52211;50.154;8.682;2023-04-01T07:35:38;12.20;66.40
65568;DHT22;52211;50.154;8.682;2023-04-01T07:48:06;12.20;66.80
65568;DHT22;52211;50.154;8.682;2023-04-01T07:50:50;12.30;66.90
65568;DHT22;52211;50.154;8.682;2023-04-01T07:53:49;12.30;66.80
65568;DHT22;52211;50.154;8.682;2023-04-01T07:56:44;12.30;67.30
65568;DHT22;52211;50.154;8.682;2023-04-01T08:02:33;12.40;66.80
65568;DHT22;52211;50.154;8.682;2023-04-01T08:08:49;12.40;66.90
65568;DHT22;52211;50.154;8.682;2023-04-01T08:15:41;12.50;66.80
65568;DHT22;52211;50.154;8.682;2023-04-01T08:21:45;12.60;66.80
65568;DHT22;52211;50.154;8.682;2023-04-01T08:24:42;12.70;67.50
65568;DHT22;52211;50.154;8.682;2023-04-01T08:32:55;12.80;66.70
65568;DHT22;52211;50.154;8.682;2023-04-01T08:35:37;12.80;66.60
65568;DHT22;52211;50.154;8.682;2023-04-01T08:38:16;12.90;66.60
65568;DHT22;52211;50.154;8.682;2023-04-01T08:56:40;13.10;66.90
65568;DHT22;52211;50.154;8.682;2023-04-01T09:02:56;13.10;67.00
65568;DHT22;52211;50.154;8.682;2023-04-01T09:05:43;13.10;67.00
65568;DHT22;52211;50.154;8.682;2023-04-01T09:08:24;13.20;66.80
65568;DHT22;52211;50.154;8.682;2023-04-01T09:24:19;13.30;67.00
65568;DHT22;52211;50.154;8.682;2023-04-01T09:44:15;13.30;67.20
65568;DHT22;52211;50.154;8.682;2023-04-01T09:47:16;13.40;67.40
65568;DHT22;52211;50.154;8.682;2023-04-01T09:50:24;13.40;67.10
65568;DHT22;52211;50.154;8.682;2023-04-01T09:53:26;13.50;67.10
65568;DHT22;52211;50.154;8.682;2023-04-01T10:14:46;13.50;67.00
65568;DHT22;52211;50.154;8.682;2023-04-01T10:17:54;13.50;67.20
65568;DHT22;52211;50.154;8.682;2023-04-01T10:21:07;13.50;67.20
65568;DHT22;52211;50.154;8.682;2023-04-01T10:57:09;13.30;68.20
65568;DHT22;52211;50.154;8.682;2023-04-01T11:17:27;13.50;68.50
65568;DHT22;52211;50.154;8.682;2023-04-01T11:23:53;13.60;68.60
65568;DHT22;52211;50.154;8.682;2023-04-01T11:51:16;13.90;68.30
65568;DHT22;52211;50.154;8.682;2023-04-01T12:10:19;14.10;68.30
65568;DHT22;52211;50.154;8.682;2023-04-01T12:12:59;14.10;68.00
65568;DHT22;52211;50.154;8.682;2023-04-01T12:18:46;14.00;68.10
65568;DHT22;52211;50.154;8.682;2023-04-01T12:24:46;13.80;68.00
65568;DHT22;52211;50.154;8.682;2023-04-01T12:27:39;13.70;68.10
65568;DHT22;52211;50.154;8.682;2023-04-01T12:36:35;13.50;68.70
65568;DHT22;52211;50.154;8.682;2023-04-01T12:39:33;13.40;68.70
65568;DHT22;52211;50.154;8.682;2023-04-01T12:45:18;13.30;69.10
65568;DHT22;52211;50.154;8.682;2023-04-01T12:56:50;13.30;69.50
65568;DHT22;52211;50.154;8.682;2023-04-01T13:09:17;13.40;70.20
65568;DHT22;52211;50.154;8.682;2023-04-01T13:17:28;13.40;70.30
65568;DHT22;52211;50.154;8.682;2023-04-01T13:20:20;13.40;69.90
65568;DHT22;52211;50.154;8.682;2023-04-01T13:23:10;13.50;70.20
65568;DHT22;52211;50.154;8.682;2023-04-01T13:26:17;13.50;70.00
65568;DHT22;52211;50.154;8.682;2023-04-01T13:29:20;13.60;70.20
65568;DHT22;52211;50.154;8.682;2023-04-01T14:01:49;14.70;72.10
65568;DHT22;52211;50.154;8.682;2023-04-01T14:04:47;15.00;71.10
65568;DHT22;52211;50.154;8.682;2023-04-01T14:07:55;15.20;70.10
65568;DHT22;52211;50.154;8.682;2023-04-01T14:11:07;15.30;69.80
65568;DHT22;52211;50.154;8.682;2023-04-01T14:29:18;15.50;69.60
65568;DHT22;52211;50.154;8.682;2023-04-01T14:37:54;15.70;69.50
65568;DHT22;52211;50.154;8.682;2023-04-01T14:43:41;16.00;69.50
65568;DHT22;52211;50.154;8.682;2023-04-01T14:49:24;16.20;68.70
65568;DHT22;52211;50.154;8.682;2023-04-01T14:54:58;16.30;68.30
65568;DHT22;52211;50.154;8.682;2023-04-01T14:57:33;16.30;68.20
65568;DHT22;52211;50.154;8.682;2023-04-01T15:00:13;16.30;67.70
65568;DHT22;52211;50.154;8.682;2023-04-01T15:08:29;16.00;67.10
65568;DHT22;52211;50.154;8.682;2023-04-01T15:11:17;15.90;67.10
65568;DHT22;52211;50.154;8.682;2023-04-01T15:23:32;15.60;67.70
65568;DHT22;52211;50.154;8.682;2023-04-01T15:39:41;15.30;67.70
65568;DHT22;52211;50.154;8.682;2023-04-01T15:48:40;15.20;67.70
65568;DHT22;52211;50.154;8.682;2023-04-01T15:57:30;15.00;67.80
65568;DHT22;52211;50.154;8.682;2023-04-01T16:00:40;15.00;67.90
65568;DHT22;52211;50.154;8.682;2023-04-01T16:06:57;14.90;68.00
65568;DHT22;52211;50.154;8.682;2023-04-01T16:15:46;14.80;68.10
65568;DHT22;52211;50.154;8.682;2023-04-01T16:21:44;14.70;68.10
65568;DHT22;52211;50.154;8.682;2023-04-01T16:24:41;14.70;68.20
65568;DHT22;52211;50.154;8.682;2023-04-01T16:27:46;14.70;68.40
65568;DHT22;52211;50.154;8.682;2023-04-01T16:30:45;14.70;68.40
65568;DHT22;52211;50.154;8.682;2023-04-01T16:36:47;14.60;68.40
65568;DHT22;52211;50.154;8.682;2023-04-01T16:44:59;14.60;68.50
65568;DHT22;52211;50.154;8.682;2023-04-01T16:47:50;14.60;68.60
65568;DHT22;52211;50.154;8.682;2023-04-01T16:50:28;14.70;68.60
65568;DHT22;52211;50.154;8.682;2023-04-01T16:53:25;14.70;68.60
65568;DHT22;52211;50.154;8.682;2023-04-01T17:11:19;14.50;68.10
65568;DHT22;52211;50.154;8.682;2023-04-01T17:27:43;14.30;68.40
65568;DHT22;52211;50.154;8.682;2023-04-01T17:30:30;14.30;68.40
65568;DHT22;52211;50.154;8.682;2023-04-01T17:33:20;14.30;68.60
65568;DHT22;52211;50.154;8.682;2023-04-01T17:41:59;14.10;68.60
65568;DHT22;52211;50.154;8.682;2023-04-01T17:47:39;14.10;68.60
65568;DHT22;52211;50.154;8.682;2023-04-01T17:53:22;14.00;68.80
65568;DHT22;52211;50.154;8.682;2023-04-01T17:56:28;14.00;68.80
65568;DHT22;52211;50.154;8.682;2023-04-01T18:02:53;13.90;69.00
65568;DHT22;52211;50.154;8.682;2023-04-01T18:14:07;13.90;69.10
65568;DHT22;52211;50.154;8.682;2023-04-01T18:22:59;13.90;69.00
65568;DHT22;52211;50.154;8.682;2023-04-01T18:31:15;13.80;69.00
65568;DHT22;52211;50.154;8.682;2023-04-01T18:36:44;13.80;68.90
65568;DHT22;52211;50.154;8.682;2023-04-01T18:39:36;13.70;69.50
65568;DHT22;52211;50.154;8.682;2023-04-01T18:46:00;13.70;69.00
65568;DHT22;52211;50.154;8.682;2023-04-01T18:48:44;13.60;69.00
65568;DHT22;52211;50.154;8.682;2023-04-01T18:51:34;13.60;69.00
65568;DHT22;52211;50.154;8.682;2023-04-01T18:54:11;13.60;69.00
65568;DHT22;52211;50.154;8.682;2023-04-01T18:56:48;13.60;69.00
65568;DHT22;52211;50.154;8.682;2023-04-01T18:59:24;13.60;69.70
65568;DHT22;52211;50.154;8.682;2023-04-01T19:02:37;13.50;69.10
65568;DHT22;52211;50.154;8.682;2023-04-01T19:05:18;13.50;69.30
65568;DHT22;52211;50.154;8.682;2023-04-01T19:07:53;13.50;69.20
65568;DHT22;52211;50.154;8.682;2023-04-01T19:10:53;13.50;69.20
65568;DHT22;52211;50.154;8.682;2023-04-01T19:25:43;13.50;69.10
65568;DHT22;52211;50.154;8.682;2023-04-01T19:34:26;13.50;69.10
65568;DHT22;52211;50.154;8.682;2023-04-01T19:46:44;13.50;69.00
65568;DHT22;52211;50.154;8.682;2023-04-01T19:49:38;13.40;69.00
65568;DHT22;52211;50.154;8.682;2023-04-01T20:00:44;13.40;69.60
65568;DHT22;52211;50.154;8.682;2023-04-01T20:03:47;13.40;69.20
65568;DHT22;52211;50.154;8.682;2023-04-01T20:14:38;13.40;69.00
65568;DHT22;52211;50.154;8.682;2023-04-01T20:17:19;13.40;69.00
65568;DHT22;52211;50.154;8.682;2023-04-01T20:20:00;13.40;68.90
65568;DHT22;52211;50.154;8.682;2023-04-01T20:36:54;13.20;68.80
65568;DHT22;52211;50.154;8.682;2023-04-01T20:45:58;13.20;69.00
65568;DHT22;52211;50.154;8.682;2023-04-01T20:51:15;13.20;69.10
65568;DHT22;52211;50.154;8.682;2023-04-01T20:56:57;13.20;69.30
65568;DHT22;52211;50.154;8.682;2023-04-01T21:26:30;13.00;69.50
65568;DHT22;52211;50.154;8.682;2023-04-01T21:41:02;12.80;69.70
65568;DHT22;52211;50.154;8.682;2023-04-01T21:44:20;12.80;69.60
65568;DHT22;52211;50.154;8.682;2023-04-01T21:53:16;12.80;70.20
65568;DHT22;52211;50.154;8.682;2023-04-01T22:11:08;12.80;69.80
65568;DHT22;52211;50.154;8.682;2023-04-01T22:14:15;12.80;69.80
65568;DHT22;52211;50.154;8.682;2023-04-01T22:29:25;12.80;70.20
65568;DHT22;52211;50.154;8.682;2023-04-01T22:32:16;12.90;70.20
65568;DHT22;52211;50.154;8.682;2023-04-01T22:40:47;12.90;70.10
65568;DHT22;52211;50.154;8.682;2023-04-01T22:43:43;12.90;70.10
65568;DHT22;52211;50.154;8.682;2023-04-01T22:49:20;12.90;70.00
65568;DHT22;52211;50.154;8.682;2023-04-01T22:57:10;12.90;70.00
65568;DHT22;52211;50.154;8.682;2023-04-01T22:59:50;12.90;70.00
65568;DHT22;52211;50.154;8.682;2023-04-01T23:02:28;12.80;69.90
65568;DHT22;52211;50.154;8.682;2023-04-01T23:05:03;12.90;70.00
65568;DHT22;52211;50.154;8.682;2023-04-01T23:07:45;12.80;69.90
65568;DHT22;52211;50.154;8.682;2023-04-01T23:13:15;12.80;70.00
65568;DHT22;52211;50.154;8.682;2023-04-01T23:15:48;12.90;70.00
65568;DHT22;52211;50.154;8.682;2023-04-01T23:21:30;12.90;70.30
65568;DHT22;52211;50.154;8.682;2023-04-01T23:27:16;12.80;70.20
65568;DHT22;52211;50.154;8.682;2023-04-01T23:29:47;12.80;70.30
65568;DHT22;52211;50.154;8.682;2023-04-01T23:32:33;12.80;70.00
65568;DHT22;52211;50.154;8.682;2023-04-01T23:35:12;12.80;70.10
65568;DHT22;52211;50.154;8.682;2023-04-01T23:37:47;12.80;70.00
65568;DHT22;52211;50.154;8.682;2023-04-01T23:40:17;12.80;70.00
65568;DHT22;52211;50.154;8.682;2023-04-01T23:42:49;12.80;70.10
65568;DHT22;52211;50.154;8.682;2023-04-01T23:45:18;12.80;70.10
65568;DHT22;52211;50.154;8.682;2023-04-01T23:47:48;12.80;70.10
65568;DHT22;52211;50.154;8.682;2023-04-01T23:50:20;12.80;70.10
65568;DHT22;52211;50.154;8.682;2023-04-01T23:53:04;12.80;70.10
65568;DHT22;52211;50.154;8.682;2023-04-01T23:55:43;12.80;70.20
65568;DHT22;52211;50.154;8.682;2023-04-01T23:58:21;12.80;70.10
